Time;durP1;ratioP1;P1;durP2;ratioP2;P2;SDS_P1;SDS_P2;PMS_P1;PMS_P2;Temp;Humidity;BMP_temperature;BMP_pressure;BME280_temperature;BME280_humidity;BME280_pressure;Samples;Min_cycle;Max_cycle;Signal;HPM_P1;HPM_P2
2023/06/17 00:00:45;;;;;;;10.65;9.60;;;21.30;99.90;;;;;;5050336;28;20206;-70
2023/06/17 00:03:12;;;;;;;10.13;9.13;;;21.40;99.90;;;;;;5048633;28;20674;-72
2023/06/17 00:05:41;;;;;;;10.30;9.18;;;21.30;99.90;;;;;;5050163;28;20273;-79
2023/06/17 00:08:08;;;;;;;10.52;9.52;;;21.30;99.90;;;;;;5050857;28;20242;-85
2023/06/17 00:10:35;;;;;;;10.45;9.30;;;21.30;99.90;;;;;;5051367;28;20218;-86
2023/06/17 00:13:02;;;;;;;10.75;9.75;;;21.30;99.90;;;;;;5049510;28;20203;-81
2023/06/17 00:15:32;;;;;;;12.98;11.50;;;21.20;99.90;;;;;;5050760;28;20297;-69
2023/06/17 00:18:00;;;;;;;10.38;9.45;;;21.20;99.90;;;;;;5047713;28;20195;-70
2023/06/17 00:20:27;;;;;;;9.70;8.80;;;21.10;99.90;;;;;;5050012;28;20207;-70
2023/06/17 00:22:55;;;;;;;10.63;9.63;;;21.00;99.90;;;;;;5042576;28;20253;-70
2023/06/17 00:25:23;;;;;;;10.10;9.13;;;21.00;99.90;;;;;;5050508;28;20242;-69
2023/06/17 00:27:50;;;;;;;10.48;9.50;;;20.90;99.90;;;;;;5048547;28;20242;-70
2023/06/17 00:30:17;;;;;;;11.45;10.35;;;20.80;99.90;;;;;;5046616;28;20687;-72
2023/06/17 00:32:44;;;;;;;13.38;10.75;;;20.80;99.90;;;;;;5049760;28;20249;-71
2023/06/17 00:35:11;;;;;;;14.05;9.90;;;20.70;99.90;;;;;;5050006;28;20627;-80
2023/06/17 00:37:39;;;;;;;10.10;8.68;;;20.70;99.90;;;;;;5049731;28;20235;-74
2023/06/17 00:40:09;;;;;;;11.27;9.05;;;20.60;99.90;;;;;;5049168;28;20211;-72
2023/06/17 00:42:36;;;;;;;11.50;10.40;;;20.60;99.90;;;;;;5050179;28;20214;-73
2023/06/17 00:45:04;;;;;;;10.88;9.40;;;20.60;99.90;;;;;;5050147;28;20252;-73
2023/06/17 00:47:32;;;;;;;11.02;10.02;;;20.50;99.90;;;;;;5050349;28;20211;-73
2023/06/17 00:49:59;;;;;;;11.65;10.45;;;20.50;99.90;;;;;;5043628;28;20219;-73
2023/06/17 00:52:28;;;;;;;13.30;9.88;;;20.50;99.90;;;;;;5036167;28;20690;-74
2023/06/17 00:54:55;;;;;;;9.85;8.95;;;20.60;99.90;;;;;;5049262;28;20230;-81
2023/06/17 00:57:23;;;;;;;10.20;9.32;;;20.60;99.90;;;;;;5049914;28;20321;-77
2023/06/17 00:59:50;;;;;;;10.05;9.13;;;20.60;99.90;;;;;;5049454;28;20286;-71
2023/06/17 01:02:17;;;;;;;11.02;10.02;;;20.60;99.90;;;;;;5052701;28;20206;-77
2023/06/17 01:04:46;;;;;;;11.85;10.55;;;20.60;99.90;;;;;;5051401;28;20207;-79
2023/06/17 01:07:29;;;;;;;10.35;9.43;;;20.70;99.90;;;;;;5053864;28;20215;-78
2023/06/17 01:10:01;;;;;;;9.73;8.80;;;20.70;99.90;;;;;;5053543;28;20337;-80
2023/06/17 01:12:30;;;;;;;10.95;9.73;;;20.60;99.90;;;;;;5053907;28;20199;-80
2023/06/17 01:15:01;;;;;;;15.95;11.50;;;20.50;99.90;;;;;;5052516;28;20247;-86
2023/06/17 01:17:30;;;;;;;11.57;10.27;;;20.50;99.90;;;;;;5053373;28;20234;-81
2023/06/17 01:19:57;;;;;;;11.60;10.48;;;20.40;99.90;;;;;;5051780;28;20636;-70
2023/06/17 01:22:26;;;;;;;17.23;9.63;;;20.30;99.90;;;;;;5053330;28;20218;-74
2023/06/17 01:25:01;;;;;;;10.57;9.57;;;20.20;99.90;;;;;;5052575;28;20372;-72
2023/06/17 01:27:28;;;;;;;10.35;9.27;;;20.20;99.90;;;;;;5053645;28;20212;-70
2023/06/17 01:29:55;;;;;;;11.85;9.40;;;20.20;99.90;;;;;;5053146;28;20425;-77
2023/06/17 01:32:23;;;;;;;10.38;9.40;;;20.20;99.90;;;;;;5052162;28;20210;-77
2023/06/17 01:34:57;;;;;;;11.18;9.43;;;20.10;99.90;;;;;;5052191;28;20235;-78
2023/06/17 01:37:29;;;;;;;10.30;9.20;;;20.10;99.90;;;;;;5053580;28;20227;-75
2023/06/17 01:39:58;;;;;;;10.82;9.82;;;20.00;99.90;;;;;;5053050;28;20619;-78
2023/06/17 01:42:31;;;;;;;10.80;9.70;;;19.90;99.90;;;;;;5052320;28;20276;-77
2023/06/17 01:45:00;;;;;;;11.60;10.15;;;19.90;99.90;;;;;;5051073;28;20694;-70
2023/06/17 01:47:27;;;;;;;14.27;10.20;;;19.90;99.90;;;;;;5052988;28;20202;-70
2023/06/17 01:49:58;;;;;;;13.73;10.45;;;19.80;99.90;;;;;;5048609;28;20235;-76
2023/06/17 01:52:25;;;;;;;10.85;9.82;;;19.80;99.90;;;;;;5051766;28;20261;-77
2023/06/17 01:54:53;;;;;;;11.65;10.43;;;19.80;99.90;;;;;;5051959;28;20686;-81
2023/06/17 01:57:22;;;;;;;10.40;9.38;;;19.90;99.90;;;;;;5053155;28;20600;-76
2023/06/17 01:59:48;;;;;;;11.05;10.00;;;19.90;99.90;;;;;;5051643;28;20215;-77
2023/06/17 02:02:16;;;;;;;10.35;9.30;;;19.90;99.90;;;;;;5052694;28;20231;-76
2023/06/17 02:04:43;;;;;;;9.85;9.05;;;19.90;99.90;;;;;;5052548;28;20207;-76
2023/06/17 02:07:11;;;;;;;10.52;9.57;;;19.90;99.90;;;;;;5052752;28;20264;-77
2023/06/17 02:09:38;;;;;;;11.77;10.60;;;19.80;99.90;;;;;;5051424;28;20209;-74
2023/06/17 02:12:06;;;;;;;10.52;9.55;;;19.70;99.90;;;;;;5052528;28;20640;-82
2023/06/17 02:14:35;;;;;;;11.13;9.50;;;19.60;99.90;;;;;;5039433;28;20264;-81
2023/06/17 02:17:03;;;;;;;11.43;10.35;;;19.60;99.90;;;;;;5053346;28;20322;-80
2023/06/17 02:19:31;;;;;;;11.32;10.13;;;19.40;99.90;;;;;;5051720;28;20237;-82
2023/06/17 02:22:00;;;;;;;11.73;10.40;;;19.40;99.90;;;;;;5051493;28;20219;-82
2023/06/17 02:24:27;;;;;;;10.38;9.40;;;19.40;99.90;;;;;;5050173;28;20242;-70
2023/06/17 02:26:54;;;;;;;12.25;11.13;;;19.30;99.90;;;;;;5051174;28;20218;-77
2023/06/17 02:29:21;;;;;;;10.82;9.82;;;19.30;99.90;;;;;;5043171;28;20231;-76
2023/06/17 02:31:50;;;;;;;12.48;9.40;;;19.20;99.90;;;;;;5049232;28;20348;-81
2023/06/17 02:34:17;;;;;;;10.98;9.88;;;19.30;99.90;;;;;;5038405;28;20210;-70
2023/06/17 02:36:44;;;;;;;10.55;9.65;;;19.30;99.90;;;;;;5051816;28;20729;-70
2023/06/17 02:39:11;;;;;;;10.98;9.98;;;19.30;99.90;;;;;;5052369;28;20214;-69
2023/06/17 02:41:38;;;;;;;11.13;9.75;;;19.30;99.90;;;;;;5044252;28;20231;-80
2023/06/17 02:44:05;;;;;;;10.88;9.88;;;19.30;99.90;;;;;;5042836;28;20238;-77
2023/06/17 02:46:33;;;;;;;11.70;10.65;;;19.30;99.90;;;;;;5052091;28;20264;-79
2023/06/17 02:49:01;;;;;;;10.45;9.35;;;19.30;99.90;;;;;;5051703;28;20206;-79
2023/06/17 02:51:28;;;;;;;11.02;10.05;;;19.30;99.90;;;;;;5050220;28;20245;-78
2023/06/17 02:53:55;;;;;;;12.50;11.40;;;19.40;99.90;;;;;;5051597;28;20253;-78
2023/06/17 02:56:22;;;;;;;11.43;10.35;;;19.30;99.90;;;;;;5051908;28;20693;-80
2023/06/17 02:58:49;;;;;;;11.63;10.40;;;19.30;99.90;;;;;;5045452;28;20239;-82
2023/06/17 03:01:16;;;;;;;11.30;10.30;;;19.30;99.90;;;;;;5041092;28;20238;-79
2023/06/17 03:03:44;;;;;;;10.25;9.35;;;19.20;99.90;;;;;;5049531;28;20352;-76
2023/06/17 03:06:13;;;;;;;9.88;8.88;;;19.20;99.90;;;;;;5051930;28;20302;-80
2023/06/17 03:08:41;;;;;;;11.18;10.18;;;19.20;99.90;;;;;;5050598;28;20210;-77
2023/06/17 03:11:08;;;;;;;12.25;11.07;;;19.20;99.90;;;;;;5047441;28;20265;-79
2023/06/17 03:13:35;;;;;;;12.45;10.57;;;19.10;99.90;;;;;;5051150;28;20634;-73
2023/06/17 03:16:02;;;;;;;12.95;9.73;;;19.10;99.90;;;;;;5050839;28;20207;-80
2023/06/17 03:18:29;;;;;;;10.80;9.80;;;19.10;99.90;;;;;;5047056;28;20241;-78
2023/06/17 03:20:56;;;;;;;12.63;9.93;;;19.20;99.90;;;;;;5049843;28;20207;-76
2023/06/17 03:23:25;;;;;;;10.65;9.65;;;19.30;99.90;;;;;;5048746;28;20230;-76
2023/06/17 03:25:53;;;;;;;11.80;10.52;;;19.30;99.90;;;;;;5047376;28;20214;-71
2023/06/17 03:28:21;;;;;;;10.77;9.88;;;19.20;99.90;;;;;;5048090;28;20213;-71
2023/06/17 03:30:49;;;;;;;11.32;10.23;;;19.30;99.90;;;;;;5049783;28;20214;-72
2023/06/17 03:33:18;;;;;;;12.27;11.13;;;19.20;99.90;;;;;;5042954;28;20258;-72
2023/06/17 03:35:47;;;;;;;11.30;10.30;;;19.20;99.90;;;;;;5044993;28;20213;-74
2023/06/17 03:38:17;;;;;;;11.93;10.70;;;19.20;99.90;;;;;;5049941;28;20255;-76
2023/06/17 03:40:49;;;;;;;13.18;10.43;;;19.30;99.90;;;;;;5050261;28;20289;-69
2023/06/17 03:43:18;;;;;;;12.35;10.23;;;19.20;99.90;;;;;;5037818;28;20199;-73
2023/06/17 03:45:47;;;;;;;11.10;10.05;;;19.20;99.90;;;;;;5050375;28;20206;-73
2023/06/17 03:48:14;;;;;;;13.40;11.23;;;19.20;99.90;;;;;;5050071;28;20257;-71
2023/06/17 03:50:41;;;;;;;10.48;9.25;;;19.20;99.90;;;;;;5050977;28;20218;-86
2023/06/17 03:53:08;;;;;;;11.23;9.65;;;19.20;99.90;;;;;;5051420;28;20234;-86
2023/06/17 03:55:36;;;;;;;11.82;10.65;;;19.10;99.90;;;;;;5051650;28;20207;-73
2023/06/17 03:58:04;;;;;;;11.90;10.70;;;19.00;99.90;;;;;;5046473;28;20775;-76
2023/06/17 04:00:31;;;;;;;12.25;11.07;;;18.90;99.90;;;;;;5051192;28;20238;-70
2023/06/17 04:02:58;;;;;;;15.10;10.48;;;18.90;99.90;;;;;;5049523;28;20215;-70
2023/06/17 04:05:32;;;;;;;11.85;10.43;;;18.90;99.90;;;;;;5050129;28;20272;-70
2023/06/17 04:07:59;;;;;;;10.93;9.93;;;19.00;99.90;;;;;;5050196;28;20203;-71
2023/06/17 04:10:26;;;;;;;11.30;10.20;;;19.00;99.90;;;;;;5042058;28;20624;-74
2023/06/17 04:12:53;;;;;;;11.32;10.25;;;19.00;99.90;;;;;;5042088;28;20199;-75
2023/06/17 04:15:22;;;;;;;10.93;9.90;;;19.00;99.90;;;;;;5043593;28;20241;-73
2023/06/17 04:17:48;;;;;;;11.95;10.85;;;19.00;99.90;;;;;;5048774;28;20266;-72
2023/06/17 04:20:16;;;;;;;10.40;9.50;;;18.90;99.90;;;;;;5046343;28;20295;-73
2023/06/17 04:22:44;;;;;;;11.38;10.27;;;19.00;99.90;;;;;;5046987;28;20718;-73
2023/06/17 04:25:12;;;;;;;10.38;9.38;;;18.90;99.90;;;;;;5040863;28;20211;-71
2023/06/17 04:27:40;;;;;;;10.85;9.88;;;18.90;99.90;;;;;;5049481;28;20234;-71
2023/06/17 04:30:09;;;;;;;10.82;9.77;;;18.80;99.90;;;;;;5049685;28;20234;-71
2023/06/17 04:32:38;;;;;;;11.55;10.43;;;18.60;99.90;;;;;;5044711;28;20207;-71
2023/06/17 04:35:06;;;;;;;11.13;9.93;;;18.40;99.90;;;;;;5049728;28;20214;-71
2023/06/17 04:37:34;;;;;;;12.23;9.48;;;18.40;99.90;;;;;;5053470;28;20226;-71
2023/06/17 04:40:02;;;;;;;10.35;9.35;;;18.30;99.90;;;;;;5051710;28;20211;-71
2023/06/17 04:42:33;;;;;;;11.27;10.27;;;18.30;99.90;;;;;;5052821;28;20213;-72
2023/06/17 04:45:00;;;;;;;12.15;10.85;;;18.30;99.90;;;;;;5049377;28;20211;-72
2023/06/17 04:47:28;;;;;;;11.82;9.88;;;18.30;99.90;;;;;;5053224;28;20623;-71
2023/06/17 04:49:56;;;;;;;12.18;10.98;;;18.20;99.90;;;;;;5053322;28;20264;-72
2023/06/17 04:52:24;;;;;;;12.02;10.93;;;18.10;99.90;;;;;;5052783;28;20242;-74
2023/06/17 04:54:51;;;;;;;11.65;10.65;;;18.30;99.90;;;;;;5052302;28;20206;-75
2023/06/17 04:57:18;;;;;;;12.57;11.27;;;18.30;99.90;;;;;;5050663;28;20292;-74
2023/06/17 04:59:45;;;;;;;11.63;10.30;;;18.40;99.90;;;;;;5051360;28;20207;-73
2023/06/17 05:02:13;;;;;;;13.80;10.40;;;18.40;99.90;;;;;;5053714;28;20234;-73
2023/06/17 05:04:40;;;;;;;11.82;10.57;;;18.50;99.90;;;;;;5053334;28;20257;-72
2023/06/17 05:07:08;;;;;;;14.23;10.55;;;18.60;99.90;;;;;;5035584;28;20645;-72
2023/06/17 05:09:35;;;;;;;11.30;10.18;;;18.60;99.90;;;;;;5045995;28;20678;-72
2023/06/17 05:12:02;;;;;;;12.30;10.75;;;18.70;99.90;;;;;;5053536;28;20210;-72
2023/06/17 05:14:29;;;;;;;11.50;10.52;;;18.70;99.90;;;;;;5052112;28;20233;-74
2023/06/17 05:16:56;;;;;;;12.45;11.40;;;18.80;99.90;;;;;;5052901;28;20250;-70
2023/06/17 05:19:23;;;;;;;12.93;11.63;;;18.80;99.90;;;;;;5053532;28;20661;-71
2023/06/17 05:21:50;;;;;;;12.65;11.35;;;18.90;99.90;;;;;;5053132;28;20296;-72
2023/06/17 05:24:18;;;;;;;12.20;10.88;;;18.90;99.90;;;;;;5053270;28;20250;-71
2023/06/17 05:26:45;;;;;;;11.65;10.50;;;18.90;99.90;;;;;;5052822;28;20234;-71
2023/06/17 05:29:12;;;;;;;12.55;11.10;;;18.90;99.90;;;;;;5052051;28;20243;-73
2023/06/17 05:31:38;;;;;;;12.25;11.20;;;19.00;99.90;;;;;;5048335;28;20731;-73
2023/06/17 05:34:05;;;;;;;14.00;12.25;;;19.00;99.90;;;;;;5038565;28;20239;-71
2023/06/17 05:36:32;;;;;;;13.57;12.18;;;19.00;99.90;;;;;;5051295;28;20264;-76
2023/06/17 05:38:59;;;;;;;12.45;11.30;;;19.10;99.90;;;;;;5050080;28;20795;-72
2023/06/17 05:41:27;;;;;;;12.48;11.18;;;19.00;99.90;;;;;;5053028;28;20206;-72
2023/06/17 05:43:55;;;;;;;12.57;11.32;;;19.00;99.90;;;;;;5052816;28;20239;-73
2023/06/17 05:46:22;;;;;;;14.32;12.77;;;19.20;99.90;;;;;;5052704;28;20230;-72
2023/06/17 05:48:49;;;;;;;12.68;11.43;;;19.30;99.90;;;;;;5052624;28;20253;-72
2023/06/17 05:51:16;;;;;;;12.88;11.68;;;19.40;99.90;;;;;;5050578;28;20873;-71
2023/06/17 05:53:43;;;;;;;12.85;11.65;;;19.50;99.90;;;;;;5052035;28;20234;-71
2023/06/17 05:56:10;;;;;;;12.25;11.02;;;19.60;99.90;;;;;;5052364;28;20249;-72
2023/06/17 05:58:39;;;;;;;11.90;10.80;;;19.70;99.90;;;;;;5051376;28;20331;-73
2023/06/17 06:01:06;;;;;;;12.07;10.88;;;19.80;99.90;;;;;;5052386;28;20211;-71
2023/06/17 06:03:32;;;;;;;12.07;10.93;;;19.90;99.90;;;;;;5051374;28;20760;-72
2023/06/17 06:05:59;;;;;;;12.32;11.13;;;19.90;99.90;;;;;;5052285;28;20238;-72
2023/06/17 06:08:26;;;;;;;12.05;11.05;;;20.00;99.90;;;;;;5047856;28;20238;-70
2023/06/17 06:10:53;;;;;;;11.48;10.38;;;20.10;99.90;;;;;;5043922;28;20239;-68
2023/06/17 06:13:20;;;;;;;11.60;10.50;;;20.10;99.90;;;;;;5048908;28;20698;-69
2023/06/17 06:15:49;;;;;;;11.13;10.02;;;20.10;99.90;;;;;;5042376;28;20242;-72
2023/06/17 06:18:16;;;;;;;16.05;14.57;;;20.10;99.90;;;;;;5047932;28;20335;-76
2023/06/17 06:20:43;;;;;;;13.55;12.23;;;20.30;99.90;;;;;;5052150;28;20234;-70
2023/06/17 06:23:10;;;;;;;13.13;11.68;;;20.40;99.90;;;;;;5052091;28;20207;-76
2023/06/17 06:25:37;;;;;;;11.60;10.50;;;20.40;99.90;;;;;;5051948;28;20234;-71
2023/06/17 06:28:05;;;;;;;11.75;10.75;;;20.40;99.90;;;;;;5052743;28;20213;-76
2023/06/17 06:30:32;;;;;;;11.55;10.55;;;20.50;99.90;;;;;;5048557;28;20685;-76
2023/06/17 06:33:00;;;;;;;11.57;10.55;;;20.40;99.90;;;;;;5040961;28;20203;-75
2023/06/17 06:35:27;;;;;;;12.20;10.88;;;20.60;99.90;;;;;;5047250;28;20246;-71
2023/06/17 06:37:54;;;;;;;12.65;11.27;;;20.70;99.90;;;;;;5050889;28;20266;-71
2023/06/17 06:40:21;;;;;;;10.57;9.68;;;20.60;99.90;;;;;;5052247;28;20235;-72
2023/06/17 06:42:48;;;;;;;12.77;11.52;;;20.60;99.90;;;;;;5051344;28;20211;-72
2023/06/17 06:45:15;;;;;;;11.95;10.77;;;20.80;99.90;;;;;;5051896;28;20259;-75
2023/06/17 06:47:42;;;;;;;11.70;10.55;;;20.90;99.90;;;;;;5043704;28;20199;-70
2023/06/17 06:50:11;;;;;;;12.73;11.48;;;21.40;99.90;;;;;;5048235;28;20231;-73
2023/06/17 06:52:37;;;;;;;13.07;11.98;;;21.40;99.90;;;;;;5049234;28;20713;-71
2023/06/17 06:55:05;;;;;;;11.65;10.45;;;21.40;99.90;;;;;;5043557;28;20241;-69
2023/06/17 06:57:32;;;;;;;11.77;10.50;;;21.50;99.90;;;;;;5045387;28;20679;-71
2023/06/17 06:59:59;;;;;;;12.43;11.18;;;21.50;99.90;;;;;;5050268;28;20272;-74
2023/06/17 07:02:26;;;;;;;11.93;10.63;;;21.90;99.90;;;;;;5051657;28;20210;-79
2023/06/17 07:04:53;;;;;;;10.48;9.55;;;21.80;99.90;;;;;;5048373;28;20294;-77
2023/06/17 07:07:21;;;;;;;10.50;9.50;;;21.80;99.90;;;;;;5048600;28;20243;-80
2023/06/17 07:09:48;;;;;;;10.25;9.25;;;21.80;99.90;;;;;;5046976;28;20247;-72
2023/06/17 07:12:15;;;;;;;10.50;9.57;;;21.70;99.90;;;;;;5051731;28;20218;-78
2023/06/17 07:14:42;;;;;;;12.23;11.07;;;21.70;99.90;;;;;;5049866;28;20261;-86
2023/06/17 07:17:09;;;;;;;9.95;9.05;;;21.90;99.90;;;;;;5044086;28;20231;-72
2023/06/17 07:19:36;;;;;;;12.00;9.82;;;22.10;99.90;;;;;;5048550;28;20764;-76
2023/06/17 07:22:03;;;;;;;10.60;9.60;;;22.30;99.90;;;;;;5045464;28;20210;-77
2023/06/17 07:24:31;;;;;;;10.63;9.63;;;22.50;99.90;;;;;;5035453;28;20264;-76
2023/06/17 07:26:58;;;;;;;10.70;9.70;;;22.80;99.90;;;;;;5047472;28;20289;-79
2023/06/17 07:29:26;;;;;;;10.77;9.63;;;22.80;99.90;;;;;;5044568;28;20225;-80
2023/06/17 07:31:52;;;;;;;9.65;8.75;;;22.90;99.90;;;;;;5051331;28;20202;-84
2023/06/17 07:34:19;;;;;;;9.48;8.57;;;22.90;99.90;;;;;;5050709;28;20238;-82
2023/06/17 07:36:52;;;;;;;9.90;8.93;;;23.00;99.90;;;;;;5050314;28;20202;-80
2023/06/17 07:39:19;;;;;;;9.43;8.52;;;23.10;99.90;;;;;;5047912;28;20234;-73
2023/06/17 07:41:47;;;;;;;9.70;8.65;;;23.20;99.90;;;;;;5045681;28;20246;-77
2023/06/17 07:44:14;;;;;;;8.73;7.95;;;23.20;99.90;;;;;;5045207;28;20234;-75
2023/06/17 07:46:41;;;;;;;9.70;8.70;;;24.00;99.90;;;;;;5049626;28;20199;-69
2023/06/17 07:49:08;;;;;;;9.00;8.18;;;24.30;99.90;;;;;;5048239;28;20207;-70
2023/06/17 07:51:36;;;;;;;8.30;7.70;;;24.40;99.90;;;;;;5046416;28;20291;-69
2023/06/17 07:54:04;;;;;;;8.88;8.05;;;24.40;99.90;;;;;;5049781;28;20294;-70
2023/06/17 07:56:32;;;;;;;7.65;6.95;;;24.00;99.90;;;;;;5048734;28;20202;-69
2023/06/17 07:59:01;;;;;;;9.43;8.57;;;24.20;99.90;;;;;;5049316;28;20226;-71
2023/06/17 08:01:28;;;;;;;8.75;7.85;;;24.30;99.90;;;;;;5049777;28;20578;-73
2023/06/17 08:03:54;;;;;;;8.63;7.82;;;24.30;99.90;;;;;;5050003;28;20561;-70
2023/06/17 08:06:22;;;;;;;7.18;6.57;;;24.30;99.90;;;;;;5049165;28;20242;-70
2023/06/17 08:08:49;;;;;;;8.63;7.85;;;24.20;99.90;;;;;;5049132;28;20322;-71
2023/06/17 08:11:16;;;;;;;7.50;6.82;;;24.20;99.90;;;;;;5047671;28;20247;-71
2023/06/17 08:13:42;;;;;;;9.35;8.45;;;24.40;99.90;;;;;;5048279;28;20654;-70
2023/06/17 08:16:11;;;;;;;8.38;7.68;;;24.50;99.90;;;;;;5049747;28;20199;-70
2023/06/17 08:18:38;;;;;;;13.02;9.32;;;24.50;99.90;;;;;;5048723;28;20311;-70
2023/06/17 08:21:05;;;;;;;8.85;8.15;;;24.50;99.90;;;;;;5049590;28;20226;-71
2023/06/17 08:23:31;;;;;;;9.30;8.23;;;24.70;99.90;;;;;;5050182;28;20298;-70
2023/06/17 08:25:58;;;;;;;7.80;7.00;;;24.80;99.90;;;;;;5048622;28;20269;-71
2023/06/17 08:28:25;;;;;;;8.77;7.60;;;24.80;99.90;;;;;;5049169;28;20256;-73
2023/06/17 08:30:52;;;;;;;9.57;8.57;;;24.90;99.90;;;;;;5049227;28;20247;-71
2023/06/17 08:33:21;;;;;;;8.23;7.47;;;24.90;99.90;;;;;;5041100;28;20239;-71
2023/06/17 08:35:48;;;;;;;8.40;7.60;;;25.10;99.90;;;;;;5044662;28;20203;-74
2023/06/17 08:38:15;;;;;;;8.65;7.85;;;25.30;99.90;;;;;;5049951;28;20625;-71
2023/06/17 08:40:45;;;;;;;9.32;8.25;;;25.50;99.90;;;;;;5048349;28;20215;-70
2023/06/17 08:43:17;;;;;;;9.02;8.10;;;25.70;99.90;;;;;;5049847;28;20199;-70
2023/06/17 08:45:47;;;;;;;8.38;7.60;;;25.90;99.90;;;;;;5048157;28;20230;-70
2023/06/17 08:48:14;;;;;;;9.48;8.60;;;26.90;99.90;;;;;;5046930;28;20230;-72
2023/06/17 08:50:44;;;;;;;8.05;7.35;;;27.20;99.90;;;;;;5048464;28;20304;-72
2023/06/17 08:53:13;;;;;;;9.38;8.52;;;28.50;99.90;;;;;;5049405;28;20207;-70
2023/06/17 08:55:40;;;;;;;9.70;8.80;;;28.10;99.90;;;;;;5049455;28;20213;-70
2023/06/17 08:58:09;;;;;;;7.82;7.22;;;28.10;99.90;;;;;;5048130;28;20226;-70
2023/06/17 09:00:36;;;;;;;7.25;6.72;;;28.50;99.90;;;;;;5049022;28;20322;-70
2023/06/17 09:03:08;;;;;;;7.30;6.70;;;29.10;99.90;;;;;;5049244;28;20203;-71
2023/06/17 09:05:35;;;;;;;8.52;7.72;;;28.00;99.90;;;;;;5049640;28;20257;-72
2023/06/17 09:08:05;;;;;;;7.57;6.88;;;28.10;99.90;;;;;;5049886;28;20289;-70
2023/06/17 09:10:42;;;;;;;7.82;7.13;;;28.60;99.90;;;;;;5049884;28;20245;-70
2023/06/17 09:13:09;;;;;;;6.47;5.97;;;29.90;99.90;;;;;;5049342;28;20203;-74
2023/06/17 09:15:40;;;;;;;7.82;7.13;;;30.50;99.90;;;;;;5048811;28;20307;-70
2023/06/17 09:18:07;;;;;;;7.55;6.93;;;29.60;99.90;;;;;;5049253;28;20211;-70
2023/06/17 09:20:34;;;;;;;6.90;6.38;;;29.10;99.90;;;;;;5047472;28;20245;-70
2023/06/17 09:23:02;;;;;;;7.55;6.85;;;29.00;99.90;;;;;;5050829;28;20233;-69
2023/06/17 09:25:35;;;;;;;10.00;7.45;;;28.90;99.90;;;;;;5053330;28;20242;-72
2023/06/17 09:28:02;;;;;;;7.70;7.10;;;29.00;99.90;;;;;;5053086;28;20214;-70
2023/06/17 09:30:29;;;;;;;10.30;8.43;;;29.00;99.90;;;;;;5050920;28;20633;-74
2023/06/17 09:32:56;;;;;;;9.07;7.82;;;29.40;99.90;;;;;;5049525;28;20238;-74
2023/06/17 09:35:23;;;;;;;7.65;7.10;;;31.50;99.90;;;;;;5051504;28;20237;-73
2023/06/17 09:37:52;;;;;;;8.10;7.43;;;32.00;99.90;;;;;;5048791;28;20206;-71
2023/06/17 09:40:19;;;;;;;8.98;8.18;;;35.30;99.90;;;;;;5051284;28;20259;-71
2023/06/17 09:42:50;;;;;;;8.57;7.72;;;35.90;99.90;;;;;;5050983;28;20226;-71
2023/06/17 09:45:24;;;;;;;7.47;6.78;;;35.90;99.90;;;;;;5041993;28;20206;-71
2023/06/17 09:47:53;;;;;;;7.57;6.97;;;37.00;99.90;;;;;;5052899;28;20241;-70
2023/06/17 09:50:22;;;;;;;8.27;7.68;;;35.40;99.90;;;;;;5041550;28;20300;-72
2023/06/17 09:52:52;;;;;;;7.80;7.20;;;34.60;99.90;;;;;;5052630;28;20242;-71
2023/06/17 09:55:20;;;;;;;8.13;7.53;;;36.30;99.90;;;;;;5052784;28;20709;-72
2023/06/17 09:57:53;;;;;;;9.38;8.10;;;39.30;99.90;;;;;;5052587;28;20205;-72
2023/06/17 10:00:25;;;;;;;7.95;7.35;;;40.20;99.90;;;;;;5052723;28;20238;-76
2023/06/17 10:02:53;;;;;;;8.75;8.05;;;42.60;99.90;;;;;;5049301;28;20198;-74
2023/06/17 10:05:23;;;;;;;8.57;7.75;;;42.70;99.90;;;;;;5051057;28;20662;-76
2023/06/17 10:07:52;;;;;;;7.35;6.78;;;41.80;99.90;;;;;;5050264;28;20234;-75
2023/06/17 10:10:19;;;;;;;7.30;6.70;;;44.30;99.90;;;;;;5052355;28;20218;-73
2023/06/17 10:12:48;;;;;;;9.57;7.28;;;42.50;99.90;;;;;;5051195;28;20241;-85
2023/06/17 10:15:20;;;;;;;7.18;6.60;;;42.70;99.90;;;;;;5048225;28;20233;-72
2023/06/17 10:17:47;;;;;;;8.13;7.43;;;43.40;99.90;;;;;;5051080;28;20694;-76
2023/06/17 10:20:17;;;;;;;7.90;7.15;;;42.90;99.90;;;;;;5051108;28;20265;-72
2023/06/17 10:22:45;;;;;;;8.15;7.55;;;42.20;99.90;;;;;;5049368;28;20641;-75
2023/06/17 10:25:16;;;;;;;7.65;6.85;;;44.30;99.90;;;;;;5052593;28;20257;-71
2023/06/17 10:27:44;;;;;;;7.47;6.93;;;42.20;99.90;;;;;;5051517;28;20237;-71
2023/06/17 10:30:29;;;;;;;6.93;6.18;;;36.80;99.90;;;;;;5052311;28;20624;-72
2023/06/17 10:32:58;;;;;;;6.88;6.30;;;34.00;99.90;;;;;;5046010;28;20565;-71
2023/06/17 10:35:36;;;;;;;6.80;6.20;;;32.70;99.90;;;;;;5043801;28;20237;-71
2023/06/17 10:38:03;;;;;;;7.32;6.57;;;31.80;99.90;;;;;;5052488;28;20244;-72
2023/06/17 10:40:35;;;;;;;6.63;5.82;;;31.10;99.90;;;;;;5051522;28;20241;-71
2023/06/17 10:43:19;;;;;;;6.63;5.97;;;31.10;99.90;;;;;;5050369;28;20205;-70
2023/06/17 10:45:51;;;;;;;7.15;6.65;;;31.00;99.90;;;;;;5050919;28;20229;-71
2023/06/17 10:48:22;;;;;;;7.15;6.55;;;30.90;99.90;;;;;;5049517;28;20731;-74
2023/06/17 10:50:53;;;;;;;5.90;5.32;;;30.80;99.90;;;;;;5051107;28;20261;-71
2023/06/17 10:53:27;;;;;;;5.63;5.22;;;31.00;99.90;;;;;;5049056;28;20244;-74
2023/06/17 10:55:54;;;;;;;5.35;4.93;;;31.00;99.90;;;;;;5051297;28;20686;-77
2023/06/17 10:58:21;;;;;;;6.60;6.00;;;30.90;99.90;;;;;;5051329;28;20633;-76
2023/06/17 11:01:00;;;;;;;6.03;5.38;;;30.80;99.90;;;;;;5049786;28;20321;-74
2023/06/17 11:03:27;;;;;;;6.32;5.90;;;30.90;99.90;;;;;;5051234;28;20201;-72
2023/06/17 11:05:57;;;;;;;6.15;5.75;;;30.70;99.90;;;;;;5044568;28;20249;-74
2023/06/17 11:08:24;;;;;;;27.33;7.40;;;30.90;99.90;;;;;;5047148;28;20637;-73
2023/06/17 11:10:51;;;;;;;4.63;3.90;;;30.80;99.90;;;;;;5040817;28;20214;-73
2023/06/17 11:13:21;;;;;;;5.05;4.65;;;30.80;99.90;;;;;;5051224;28;20241;-74
2023/06/17 11:15:54;;;;;;;5.32;4.93;;;30.80;99.90;;;;;;5051216;28;20199;-73
2023/06/17 11:18:23;;;;;;;7.00;5.80;;;30.70;99.90;;;;;;5050585;28;20241;-73
2023/06/17 11:20:50;;;;;;;5.50;5.07;;;30.90;99.90;;;;;;5049228;28;20802;-73
2023/06/17 11:23:18;;;;;;;4.95;4.55;;;30.90;99.90;;;;;;5051126;28;20206;-73
2023/06/17 11:25:45;;;;;;;6.13;5.63;;;30.90;99.90;;;;;;5050470;28;20740;-73
2023/06/17 11:28:12;;;;;;;6.30;5.80;;;30.90;99.90;;;;;;5050734;28;20238;-73
2023/06/17 11:30:41;;;;;;;5.47;5.07;;;30.70;99.90;;;;;;5050848;28;20230;-73
2023/06/17 11:33:08;;;;;;;5.32;4.93;;;30.80;99.90;;;;;;5042508;28;20221;-73
2023/06/17 11:35:38;;;;;;;5.78;5.32;;;30.70;99.90;;;;;;5049425;28;20581;-73
2023/06/17 11:38:05;;;;;;;5.90;5.45;;;30.90;99.90;;;;;;5050396;28;20203;-73
2023/06/17 11:40:32;;;;;;;5.63;5.10;;;31.00;99.90;;;;;;5050191;28;20276;-72
2023/06/17 11:43:00;;;;;;;6.55;5.90;;;30.80;99.90;;;;;;5046493;28;20682;-72
2023/06/17 11:45:30;;;;;;;6.18;5.18;;;30.90;99.90;;;;;;5048052;28;20249;-72
2023/06/17 11:47:57;;;;;;;5.40;4.90;;;30.90;99.90;;;;;;5050196;28;20526;-74
2023/06/17 11:50:29;;;;;;;5.80;5.20;;;31.00;99.90;;;;;;5050670;28;20253;-72
2023/06/17 11:52:58;;;;;;;5.20;4.80;;;31.10;99.90;;;;;;5049483;28;20666;-72
2023/06/17 11:55:32;;;;;;;4.85;4.45;;;31.10;99.90;;;;;;5046329;28;20239;-73
2023/06/17 11:58:00;;;;;;;5.22;4.82;;;31.00;99.90;;;;;;5043328;28;20237;-74
2023/06/17 12:00:28;;;;;;;4.45;4.15;;;31.00;99.90;;;;;;5050402;28;20258;-75
2023/06/17 12:02:56;;;;;;;5.03;4.63;;;31.00;99.90;;;;;;5048640;28;20244;-72
2023/06/17 12:05:27;;;;;;;4.75;4.15;;;31.00;99.90;;;;;;5045532;28;20213;-73
2023/06/17 12:07:55;;;;;;;5.07;4.70;;;31.20;99.90;;;;;;5048460;28;20212;-73
2023/06/17 12:10:23;;;;;;;5.13;4.30;;;31.20;99.90;;;;;;5036611;28;20199;-74
2023/06/17 12:12:52;;;;;;;5.38;4.97;;;31.40;99.90;;;;;;5044861;28;20301;-74
2023/06/17 12:15:27;;;;;;;4.13;3.72;;;31.20;99.90;;;;;;5047202;28;20206;-76
2023/06/17 12:17:55;;;;;;;5.50;4.88;;;31.30;99.90;;;;;;5048635;28;20283;-75
2023/06/17 12:20:22;;;;;;;4.75;4.35;;;31.20;99.90;;;;;;5048786;28;20265;-74
2023/06/17 12:22:51;;;;;;;5.28;4.88;;;31.20;99.90;;;;;;5049927;28;20254;-75
2023/06/17 12:25:18;;;;;;;6.13;4.30;;;31.30;99.90;;;;;;5049846;28;20640;-75
2023/06/17 12:27:47;;;;;;;5.18;4.72;;;31.30;99.90;;;;;;5049471;28;20207;-72
2023/06/17 12:30:14;;;;;;;4.97;4.57;;;31.20;99.90;;;;;;5050015;28;20698;-75
2023/06/17 12:32:42;;;;;;;5.38;4.95;;;31.20;99.90;;;;;;5046478;28;20247;-72
2023/06/17 12:35:11;;;;;;;6.82;5.72;;;31.10;99.90;;;;;;5039260;28;20206;-71
2023/06/17 12:37:41;;;;;;;5.38;4.88;;;31.40;99.90;;;;;;5049346;28;20302;-73
2023/06/17 12:40:09;;;;;;;4.53;4.22;;;31.50;99.90;;;;;;5049771;28;20327;-74
2023/06/17 12:42:36;;;;;;;5.40;4.70;;;31.50;99.90;;;;;;5050047;28;20299;-72